Terminal Aerodrome Forecast
Issued by NWS

Home | Current Version | Previous Version | Graphics & Text | Print | Product List | Glossary On
Versions: 1 2 3 4 5 6 7 8 9 10 11 12 13 14 15 16 17 18 19 20 21 22 23 24 25 26 27 28 29 30 31
000
FTUS43 KLOT 151135
TAFORD
TAF
KORD 151135Z 1512/1618 22007KT 3/4SM BR OVC003
      TEMPO 1512/1516 1/2SM -DZ FG OVC002
     FM151800 26004KT 3/4SM BR OVC003
      TEMPO 1518/1521 1 1/2SM -RA BR
     FM152100 32005KT 2SM BR OVC006
     FM160000 33008KT 5SM BR OVC010
     FM160500 32014G19KT P6SM BKN015 OVC025
     FM161200 32012KT P6SM SCT025=

USA.gov is the U.S. government's official web portal to all federal, state and local government web resources and services.